Gosnold, Massachusetts
Current Conditions -  °F | °C
As of 2:53 AM on Tuesday 21 Oct 2014 (Local Time) from KMVY Reporting Station
Overcast Overcast  
Wind Chill: 59°   Ceiling: 7000
Heat Index: 59°   Visibility: 10mi
Dew Point: 51°   Wind: 6mph
Humidity: 75%   Direction: 220°SW
Pressure: 30"   Gusts: NA
Location:  41.4796°N, 70.7571°W
Report Text: KMVY 210653Z AUTO 22005KT 10SM OVC070 15/11 A3000 RMK AO2 SLP159 T01500106
Loading
Personal Weather Stations






























Interactive Weather Map
Tropical Storm Tracking
New forecast layout! Learn more

10-Day Weather Forecast

Advertisements
Track Severe Weather on mobile